Terminal Aerodrome Forecast
Issued by NWS Tuscon, AZ

Home | Current Version | Previous Version | Text Only | Print | Product List | Glossary On
Versions: 1 2 3 4 5 6 7 8 9 10 11 12 13
846
FTUS45 KTWC 151736
TAFDUG
TAF
KDUG 151736Z 1518/1618 09013KT P6SM SKC
     FM152300 08008KT P6SM SKC
     FM160500 05006KT P6SM SKC
     FM161100 VRB04KT P6SM SKC=

USA.gov is the U.S. government's official web portal to all federal, state and local government web resources and services.